Time;durP1;ratioP1;P1;durP2;ratioP2;P2;SDS_P1;SDS_P2;PMS_P1;PMS_P2;Temp;Humidity;BMP_temperature;BMP_pressure;BME280_temperature;BME280_humidity;BME280_pressure;Samples;Min_cycle;Max_cycle;Signal;HPM_P1;HPM_P2
2023/09/29 00:00:18;;;;;;;7.93;6.38;;;;;;;;;;5100538;28;20082;-71
2023/09/29 00:02:45;;;;;;;7.68;5.90;;;;;;;;;;5032141;28;20025;-71
2023/09/29 00:05:17;;;;;;;8.95;6.38;;;;;;;;;;5100500;28;20101;-71
2023/09/29 00:07:59;;;;;;;;;;;;;;;;;;5095537;28;20030;-71
2023/09/29 00:10:25;;;;;;;7.93;6.75;;;;;;;;;;5118032;27;19913;-71
2023/09/29 00:12:51;;;;;;;8.88;7.22;;;;;;;;;;5032480;28;20115;-72
2023/09/29 00:15:17;;;;;;;7.80;6.97;;;;;;;;;;5031909;28;20034;-71
2023/09/29 00:17:42;;;;;;;8.15;6.47;;;;;;;;;;5032401;28;20014;-61
2023/09/29 00:20:25;;;;;;;7.55;6.85;;;;;;;;;;5032090;28;20025;-61
2023/09/29 00:22:52;;;;;;;8.95;6.53;;;;;;;;;;5032132;28;20045;-61
2023/09/29 00:25:18;;;;;;;8.73;6.78;;;;;;;;;;5031928;28;20029;-72
2023/09/29 00:27:44;;;;;;;7.38;6.53;;;;;;;;;;5083313;28;20021;-72
2023/09/29 00:30:10;;;;;;;9.35;6.82;;;;;;;;;;5100163;28;20383;-72
2023/09/29 00:32:35;;;;;;;7.93;6.82;;;;;;;;;;5031809;28;20038;-61
2023/09/29 00:35:01;;;;;;;7.97;6.57;;;;;;;;;;5099676;28;20038;-71
2023/09/29 00:37:26;;;;;;;7.38;6.57;;;;;;;;;;5031944;28;20067;-71
2023/09/29 00:39:52;;;;;;;8.05;6.53;;;;;;;;;;5100081;28;20057;-71
2023/09/29 00:42:18;;;;;;;7.45;6.22;;;;;;;;;;5031633;28;20104;-71
2023/09/29 00:44:44;;;;;;;6.53;5.75;;;;;;;;;;5031496;28;20060;-71
2023/09/29 00:47:10;;;;;;;6.00;5.47;;;;;;;;;;5031392;28;20046;-71
2023/09/29 00:49:36;;;;;;;6.97;5.63;;;;;;;;;;5083044;28;20097;-71
2023/09/29 00:52:01;;;;;;;8.38;6.50;;;;;;;;;;5031550;28;20065;-71
2023/09/29 00:54:32;;;;;;;11.85;6.63;;;;;;;;;;5099726;28;20037;-71
2023/09/29 00:56:59;;;;;;;7.18;6.47;;;;;;;;;;5099755;28;20372;-70
2023/09/29 00:59:31;;;;;;;9.20;6.40;;;;;;;;;;5098982;28;20045;-71
2023/09/29 01:01:57;;;;;;;7.22;6.53;;;;;;;;;;5031619;28;20025;-71
2023/09/29 01:04:23;;;;;;;6.82;6.10;;;;;;;;;;5099475;28;20104;-71
2023/09/29 01:06:49;;;;;;;7.07;6.38;;;;;;;;;;5031423;28;20463;-72
2023/09/29 01:09:16;;;;;;;6.75;5.78;;;;;;;;;;5031030;28;20101;-70
2023/09/29 01:11:43;;;;;;;7.75;6.50;;;;;;;;;;5082266;28;20490;-61
2023/09/29 01:14:11;;;;;;;7.53;6.45;;;;;;;;;;5082562;28;20440;-69
2023/09/29 01:16:40;;;;;;;6.97;6.28;;;;;;;;;;5031112;28;20065;-69
2023/09/29 01:19:12;;;;;;;7.78;6.45;;;;;;;;;;5099103;28;20457;-69
2023/09/29 01:21:44;;;;;;;6.07;5.53;;;;;;;;;;5099603;28;20475;-69
2023/09/29 01:24:10;;;;;;;6.65;5.70;;;;;;;;;;5099328;28;20025;-61
2023/09/29 01:26:36;;;;;;;6.68;5.75;;;;;;;;;;5031410;28;20049;-61
2023/09/29 01:29:03;;;;;;;7.03;6.28;;;;;;;;;;5099430;28;20025;-61
2023/09/29 01:31:28;;;;;;;6.57;5.85;;;;;;;;;;5030893;28;20036;-61
2023/09/29 01:33:54;;;;;;;7.07;5.78;;;;;;;;;;5099077;28;20033;-61
2023/09/29 01:36:20;;;;;;;9.18;5.57;;;;;;;;;;5031071;28;20051;-71
2023/09/29 01:38:45;;;;;;;7.13;6.07;;;;;;;;;;5099044;28;20044;-71
2023/09/29 01:41:13;;;;;;;8.77;6.38;;;;;;;;;;5030812;28;20363;-70
2023/09/29 01:43:39;;;;;;;6.78;6.18;;;;;;;;;;5030689;28;20420;-71
2023/09/29 01:46:07;;;;;;;6.82;6.13;;;;;;;;;;5030491;28;20155;-72
2023/09/29 01:48:33;;;;;;;7.15;6.45;;;;;;;;;;5098923;28;20056;-61
2023/09/29 01:51:02;;;;;;;6.88;6.20;;;;;;;;;;5031212;28;20146;-72
2023/09/29 01:53:30;;;;;;;6.25;5.65;;;;;;;;;;5030710;28;20021;-72
2023/09/29 01:55:58;;;;;;;6.22;5.63;;;;;;;;;;5030840;28;20038;-71
2023/09/29 01:58:23;;;;;;;6.50;5.85;;;;;;;;;;5099223;28;20389;-71
2023/09/29 02:00:49;;;;;;;9.30;6.55;;;;;;;;;;5099020;28;20037;-71
2023/09/29 02:03:15;;;;;;;5.90;5.32;;;;;;;;;;5030956;28;20026;-71
2023/09/29 02:05:40;;;;;;;6.78;5.90;;;;;;;;;;5098931;28;20466;-62
2023/09/29 02:08:06;;;;;;;8.57;6.28;;;;;;;;;;5030693;28;20034;-62
2023/09/29 02:10:31;;;;;;;6.88;6.18;;;;;;;;;;5099195;28;20022;-61
2023/09/29 02:12:58;;;;;;;6.97;6.28;;;;;;;;;;5082312;28;20438;-61
2023/09/29 02:15:26;;;;;;;6.93;6.25;;;;;;;;;;5098564;28;20022;-61
2023/09/29 02:17:52;;;;;;;10.02;6.82;;;;;;;;;;5082224;28;20073;-61
2023/09/29 02:20:28;;;;;;;7.60;6.20;;;;;;;;;;5099390;28;20021;-61
2023/09/29 02:22:55;;;;;;;7.57;5.78;;;;;;;;;;5103185;28;20527;-61
2023/09/29 02:25:25;;;;;;;7.65;6.22;;;;;;;;;;5102583;28;20017;-61
2023/09/29 02:27:55;;;;;;;8.57;6.45;;;;;;;;;;5102942;28;20366;-60
2023/09/29 02:30:21;;;;;;;7.60;5.90;;;;;;;;;;5034042;28;20453;-60
2023/09/29 02:32:47;;;;;;;7.22;5.97;;;;;;;;;;5085633;28;20549;-61
2023/09/29 02:35:13;;;;;;;6.82;6.10;;;;;;;;;;5033047;28;20034;-70
2023/09/29 02:37:39;;;;;;;8.05;6.13;;;;;;;;;;5102063;28;20041;-69
2023/09/29 02:40:11;;;;;;;8.32;5.80;;;;;;;;;;5101249;28;20043;-66
2023/09/29 02:42:36;;;;;;;8.25;5.97;;;;;;;;;;5033588;28;20045;-65
2023/09/29 02:45:02;;;;;;;7.30;6.38;;;;;;;;;;5032510;28;20017;-66
2023/09/29 02:47:28;;;;;;;7.75;6.07;;;;;;;;;;5101826;28;20487;-66
2023/09/29 02:49:54;;;;;;;5.75;5.22;;;;;;;;;;5102373;28;20032;-59
2023/09/29 02:52:20;;;;;;;6.70;5.25;;;;;;;;;;5084354;28;20041;-67
2023/09/29 02:54:45;;;;;;;5.72;5.22;;;;;;;;;;5032953;28;20044;-67
2023/09/29 02:57:11;;;;;;;7.95;5.43;;;;;;;;;;5033278;28;20034;-69
2023/09/29 02:59:37;;;;;;;6.50;5.53;;;;;;;;;;5101914;28;20116;-61
2023/09/29 03:02:04;;;;;;;5.80;5.22;;;;;;;;;;5102038;28;20470;-68
2023/09/29 03:04:29;;;;;;;6.07;5.20;;;;;;;;;;5101948;28;20061;-68
2023/09/29 03:06:56;;;;;;;6.68;6.03;;;;;;;;;;5033532;28;20061;-68
2023/09/29 03:09:22;;;;;;;8.10;6.68;;;;;;;;;;5101606;28;20434;-68
2023/09/29 03:11:48;;;;;;;9.20;6.30;;;;;;;;;;5101937;28;20120;-69
2023/09/29 03:14:16;;;;;;;8.80;6.45;;;;;;;;;;5101940;28;20026;-69
2023/09/29 03:16:42;;;;;;;8.93;5.78;;;;;;;;;;5084890;28;20029;-69
2023/09/29 03:19:08;;;;;;;9.02;5.80;;;;;;;;;;5033239;28;20056;-69
2023/09/29 03:21:34;;;;;;;8.82;5.55;;;;;;;;;;5033027;28;20072;-69
2023/09/29 03:24:00;;;;;;;8.40;5.50;;;;;;;;;;5032918;28;20032;-69
2023/09/29 03:26:26;;;;;;;7.50;5.95;;;;;;;;;;5100213;28;20586;-67
2023/09/29 03:28:56;;;;;;;7.50;6.10;;;;;;;;;;5100632;28;20109;-66
2023/09/29 03:31:24;;;;;;;6.70;5.80;;;;;;;;;;5100421;28;20033;-65
2023/09/29 03:33:49;;;;;;;7.97;5.90;;;;;;;;;;5030804;28;20112;-65
2023/09/29 03:36:15;;;;;;;6.55;5.88;;;;;;;;;;5031257;28;20422;-66
2023/09/29 03:38:41;;;;;;;6.68;5.72;;;;;;;;;;5031291;28;20527;-66
2023/09/29 03:41:08;;;;;;;9.65;6.07;;;;;;;;;;5030851;28;20021;-69
2023/09/29 03:43:33;;;;;;;12.30;6.22;;;;;;;;;;5099513;28;20033;-69
2023/09/29 03:45:59;;;;;;;10.50;6.35;;;;;;;;;;5031182;28;20017;-69
2023/09/29 03:48:28;;;;;;;7.07;5.80;;;;;;;;;;5030954;28;20466;-70
2023/09/29 03:50:54;;;;;;;7.25;5.65;;;;;;;;;;5099381;28;20089;-70
2023/09/29 03:53:21;;;;;;;7.65;5.65;;;;;;;;;;5030943;28;20033;-70
2023/09/29 03:55:46;;;;;;;7.57;5.70;;;;;;;;;;5030696;28;20025;-69
2023/09/29 03:58:13;;;;;;;10.30;5.63;;;;;;;;;;5030796;28;20038;-69
2023/09/29 04:00:39;;;;;;;5.40;4.90;;;;;;;;;;5031190;28;20026;-70
2023/09/29 04:03:04;;;;;;;7.00;5.40;;;;;;;;;;5031610;28;20352;-68
2023/09/29 04:05:32;;;;;;;7.15;5.28;;;;;;;;;;5031685;28;20030;-69
2023/09/29 04:07:57;;;;;;;6.43;5.70;;;;;;;;;;5031833;28;20108;-68
2023/09/29 04:10:26;;;;;;;6.93;5.82;;;;;;;;;;5031770;28;20112;-67
2023/09/29 04:12:51;;;;;;;7.15;5.75;;;;;;;;;;5032502;28;20021;-70
2023/09/29 04:15:17;;;;;;;7.13;5.63;;;;;;;;;;5032446;28;20036;-69
2023/09/29 04:17:43;;;;;;;7.72;6.10;;;;;;;;;;5031243;28;20034;-70
2023/09/29 04:20:09;;;;;;;10.35;6.25;;;;;;;;;;5030673;28;20026;-69
2023/09/29 04:22:34;;;;;;;6.45;5.63;;;;;;;;;;5030841;28;20041;-69
2023/09/29 04:25:00;;;;;;;6.88;5.63;;;;;;;;;;5099557;28;20029;-69
2023/09/29 04:27:26;;;;;;;6.05;5.10;;;;;;;;;;5030718;28;20233;-69
2023/09/29 04:29:52;;;;;;;7.18;6.25;;;;;;;;;;5098875;28;20460;-69
2023/09/29 04:32:17;;;;;;;12.15;6.18;;;;;;;;;;5030687;28;20109;-70
2023/09/29 04:34:43;;;;;;;8.55;5.15;;;;;;;;;;5031038;28;20124;-69
2023/09/29 04:37:09;;;;;;;8.13;6.40;;;;;;;;;;5030576;28;20037;-69
2023/09/29 04:39:34;;;;;;;6.50;5.82;;;;;;;;;;5030894;28;20028;-69
2023/09/29 04:42:00;;;;;;;7.05;6.18;;;;;;;;;;5030938;28;20029;-69
2023/09/29 04:44:25;;;;;;;6.65;6.03;;;;;;;;;;5029788;28;20030;-69
2023/09/29 04:46:50;;;;;;;8.70;6.20;;;;;;;;;;5030547;28;20038;-69
2023/09/29 04:49:16;;;;;;;6.20;5.60;;;;;;;;;;5030167;28;20020;-69
2023/09/29 04:51:43;;;;;;;7.15;6.25;;;;;;;;;;5030457;28;20033;-68
2023/09/29 04:54:09;;;;;;;8.93;6.35;;;;;;;;;;5098734;28;20032;-68
2023/09/29 04:56:34;;;;;;;6.00;5.40;;;;;;;;;;5099288;28;20038;-70
2023/09/29 04:58:59;;;;;;;7.78;6.18;;;;;;;;;;5031747;28;20037;-67
2023/09/29 05:01:26;;;;;;;7.50;5.95;;;;;;;;;;5031566;28;20124;-66
2023/09/29 05:03:51;;;;;;;7.70;6.30;;;;;;;;;;5030828;28;20048;-66
2023/09/29 05:06:17;;;;;;;9.10;5.45;;;;;;;;;;5099377;28;20391;-66
2023/09/29 05:08:42;;;;;;;10.88;6.30;;;;;;;;;;5031700;28;20061;-67
2023/09/29 05:11:08;;;;;;;7.75;5.97;;;;;;;;;;5099033;28;20129;-67
2023/09/29 05:13:34;;;;;;;6.43;5.70;;;;;;;;;;5031632;28;20033;-67
2023/09/29 05:16:00;;;;;;;6.65;5.18;;;;;;;;;;5030847;28;20440;-67
2023/09/29 05:18:25;;;;;;;7.18;5.40;;;;;;;;;;5031096;28;20029;-67
2023/09/29 05:20:51;;;;;;;8.90;5.93;;;;;;;;;;5031384;28;20044;-67
2023/09/29 05:23:16;;;;;;;8.25;5.68;;;;;;;;;;5031232;28;20482;-67
2023/09/29 05:25:47;;;;;;;9.00;5.78;;;;;;;;;;5031340;28;20026;-67
2023/09/29 05:28:13;;;;;;;7.20;5.88;;;;;;;;;;5031171;28;20474;-67
2023/09/29 05:30:38;;;;;;;6.85;5.25;;;;;;;;;;5030673;28;20018;-67
2023/09/29 05:33:04;;;;;;;8.68;5.45;;;;;;;;;;5098807;28;20025;-67
2023/09/29 05:35:30;;;;;;;6.18;5.25;;;;;;;;;;5099527;28;20452;-67
2023/09/29 05:37:55;;;;;;;6.85;5.53;;;;;;;;;;5031380;28;20042;-68
2023/09/29 05:40:21;;;;;;;8.35;5.32;;;;;;;;;;5099617;28;20030;-67
2023/09/29 05:42:47;;;;;;;8.45;5.22;;;;;;;;;;5031112;28;20328;-67
2023/09/29 05:45:12;;;;;;;9.00;5.05;;;;;;;;;;5030571;28;20086;-67
2023/09/29 05:55:40;;;;;;;;;;;;;;;;;;5032559;28;20082;-67
2023/09/29 06:01:53;;;;;;;6.63;5.50;;;;;;;;;;5034015;28;20049;-67
2023/09/29 06:07:53;;;;;;;5.75;5.15;;;;;;;;;;5034085;28;20052;-67
2023/09/29 06:13:54;;;;;;;5.97;5.30;;;;;;;;;;5034016;28;20513;-67
2023/09/29 06:19:54;;;;;;;5.80;5.25;;;;;;;;;;5033894;28;20104;-67
2023/09/29 06:25:58;;;;;;;5.80;4.80;;;;;;;;;;5033830;28;20023;-67
2023/09/29 06:31:58;;;;;;;8.18;5.13;;;;;;;;;;5033629;28;20121;-67
2023/09/29 06:38:00;;;;;;;7.63;5.43;;;;;;;;;;5033360;28;20071;-67
2023/09/29 06:44:00;;;;;;;6.55;5.38;;;;;;;;;;5033519;28;20117;-67
2023/09/29 07:00:40;;;;;;;5.95;5.05;;;;;;;;;;5033207;28;20049;-67
2023/09/29 07:06:42;;;;;;;6.13;5.07;;;;;;;;;;5032707;28;20029;-67
2023/09/29 07:12:42;;;;;;;12.25;5.30;;;;;;;;;;5033116;28;20032;-67
2023/09/29 07:18:43;;;;;;;4.55;4.20;;;;;;;;;;5033040;28;20029;-67
2023/09/29 07:24:45;;;;;;;4.75;4.20;;;;;;;;;;5032947;28;20431;-67
2023/09/29 07:30:45;;;;;;;6.78;4.90;;;;;;;;;;5032558;28;20070;-67
2023/09/29 07:36:46;;;;;;;4.75;4.30;;;;;;;;;;5032743;28;20136;-67
2023/09/29 07:42:47;;;;;;;4.85;4.03;;;;;;;;;;5032376;28;20490;-67
2023/09/29 07:48:48;;;;;;;4.47;4.05;;;;;;;;;;5032549;28;20066;-66
2023/09/29 07:59:16;;;;;;;4.47;3.97;;;;;;;;;;5032428;28;20102;-66
2023/09/29 08:05:17;;;;;;;7.57;4.47;;;;;;;;;;5032298;28;20103;-66
2023/09/29 08:11:18;;;;;;;5.70;4.97;;;;;;;;;;5032177;28;20162;-66
2023/09/29 08:17:19;;;;;;;6.68;4.28;;;;;;;;;;5031689;28;20024;-66
2023/09/29 08:23:19;;;;;;;6.50;4.20;;;;;;;;;;5031994;28;20037;-66
2023/09/29 08:29:20;;;;;;;9.65;4.47;;;;;;;;;;5032017;28;20060;-66
2023/09/29 08:35:20;;;;;;;4.88;4.43;;;;;;;;;;5031814;28;20082;-66
2023/09/29 08:41:25;;;;;;;5.07;4.63;;;;;;;;;;5031654;28;20072;-66
2023/09/29 08:47:07;;;;;;;7.22;4.40;;;;;;;;;;5031858;28;19916;-66
2023/09/29 08:53:10;;;;;;;6.53;3.95;;;;;;;;;;5031530;28;20024;-66
2023/09/29 09:03:39;;;;;;;;;;;;;;;;;;5031914;28;20503;-66
2023/09/29 09:09:54;;;;;;;3.33;3.00;;;;;;;;;;5031398;28;20148;-66
2023/09/29 09:15:55;;;;;;;3.72;3.40;;;;;;;;;;5031039;28;20386;-67
2023/09/29 09:21:55;;;;;;;3.72;3.42;;;;;;;;;;5031019;28;20486;-66
2023/09/29 09:27:56;;;;;;;3.17;2.97;;;;;;;;;;5031083;28;20070;-66
2023/09/29 09:33:57;;;;;;;5.45;4.07;;;;;;;;;;5031029;28;20145;-66
2023/09/29 09:40:00;;;;;;;3.85;3.45;;;;;;;;;;5030972;28;20025;-66
2023/09/29 09:46:06;;;;;;;5.55;3.63;;;;;;;;;;5031145;28;20079;-66
2023/09/29 09:52:08;;;;;;;5.25;3.47;;;;;;;;;;5030529;28;20391;-67
2023/09/29 10:02:11;;;;;;;4.05;3.65;;;;;;;;;;5030551;28;20064;-66
2023/09/29 10:15:23;;;;;;;4.65;4.15;;;;;;;;;;5071521;28;20031;-59
2023/09/29 10:18:25;;;;;;;5.97;3.72;;;;;;;;;;5071571;28;20032;-59
2023/09/29 10:24:28;;;;;;;5.32;3.40;;;;;;;;;;5071334;28;20039;-59
2023/09/29 10:30:28;;;;;;;4.50;3.50;;;;;;;;;;5071219;28;20111;-59
2023/09/29 10:36:41;;;;;;;4.25;3.83;;;;;;;;;;5071258;28;20406;-59
2023/09/29 10:45:56;;;;;;;3.85;3.55;;;;;;;;;;5033534;28;20113;-59
2023/09/29 10:51:57;;;;;;;4.15;3.85;;;;;;;;;;5033184;28;20176;-59
2023/09/29 11:02:11;;;;;;;3.92;3.63;;;;;;;;;;5033235;28;20033;-59
2023/09/29 11:08:29;;;;;;;3.75;3.45;;;;;;;;;;5033213;28;20040;-59
2023/09/29 11:14:36;;;;;;;3.92;3.58;;;;;;;;;;5033117;28;20020;-59
2023/09/29 11:20:37;;;;;;;3.97;3.67;;;;;;;;;;5032802;28;20144;-59
2023/09/29 11:26:40;;;;;;;4.40;4.00;;;;;;;;;;5032700;28;20101;-59
2023/09/29 11:32:40;;;;;;;4.78;4.25;;;;;;;;;;5032811;28;20028;-59
2023/09/29 11:38:40;;;;;;;5.70;4.03;;;;;;;;;;5032477;28;20073;-59
2023/09/29 11:44:40;;;;;;;6.03;4.47;;;;;;;;;;5032555;28;20071;-59
2023/09/29 15:12:14;;;;;;;4.20;3.80;;;;;;;;;;5050573;28;20037;-67
2023/09/29 15:14:39;;;;;;;5.05;4.40;;;;;;;;;;5053070;28;20052;-67
2023/09/29 15:17:05;;;;;;;6.60;4.13;;;;;;;;;;5052340;28;20044;-67
2023/09/29 15:19:30;;;;;;;4.22;3.92;;;;;;;;;;5052338;28;20044;-67
2023/09/29 15:21:57;;;;;;;5.93;4.20;;;;;;;;;;5052660;28;20398;-67
2023/09/29 15:24:25;;;;;;;4.78;4.30;;;;;;;;;;5052628;28;20037;-67
2023/09/29 15:26:50;;;;;;;5.20;4.10;;;;;;;;;;5051816;28;20105;-68
2023/09/29 15:29:19;;;;;;;4.90;4.47;;;;;;;;;;5052147;28;20371;-67
2023/09/29 15:31:44;;;;;;;4.95;4.45;;;;;;;;;;5052255;28;20116;-67
2023/09/29 15:38:14;;;;;;;4.85;4.47;;;;;;;;;;5052391;28;20081;-67
2023/09/29 15:44:15;;;;;;;5.57;4.70;;;;;;;;;;5052597;28;20098;-67
2023/09/29 15:50:16;;;;;;;5.63;5.13;;;;;;;;;;5052252;28;20101;-67
2023/09/29 15:52:42;;;;;;;5.63;5.03;;;;;;;;;;5052480;28;20048;-67
2023/09/29 15:55:07;;;;;;;6.47;5.90;;;;;;;;;;5033793;28;20037;-69
2023/09/29 15:57:50;;;;;;;25.98;9.13;;;;;;;;;;5051356;28;20033;-69
2023/09/29 16:00:16;;;;;;;40.03;11.93;;;;;;;;;;5050958;28;20041;-69
2023/09/29 16:02:42;;;;;;;21.20;8.23;;;;;;;;;;5050175;28;20037;-61
2023/09/29 16:05:08;;;;;;;16.48;7.60;;;;;;;;;;5118733;27;20478;-61
2023/09/29 16:07:34;;;;;;;11.57;6.70;;;;;;;;;;5050077;28;20093;-61
2023/09/29 16:10:00;;;;;;;12.00;6.10;;;;;;;;;;5057517;27;20045;-61
2023/09/29 16:12:26;;;;;;;8.05;6.07;;;;;;;;;;5156755;27;20034;-61
2023/09/29 16:14:51;;;;;;;17.58;7.72;;;;;;;;;;5156756;27;20041;-61
2023/09/29 16:17:17;;;;;;;7.45;6.45;;;;;;;;;;5156595;27;20039;-61
2023/09/29 16:19:42;;;;;;;9.77;6.25;;;;;;;;;;5156572;27;20037;-61
2023/09/29 16:22:09;;;;;;;12.20;7.00;;;;;;;;;;5156586;27;20467;-61
2023/09/29 16:24:35;;;;;;;13.82;7.63;;;;;;;;;;5156506;27;20495;-61
2023/09/29 16:27:00;;;;;;;13.75;6.97;;;;;;;;;;5156454;27;20031;-61
2023/09/29 16:29:26;;;;;;;10.18;6.57;;;;;;;;;;5156401;27;20107;-61
2023/09/29 16:31:51;;;;;;;11.73;6.47;;;;;;;;;;5156349;27;20499;-61
2023/09/29 16:34:16;;;;;;;7.93;7.05;;;;;;;;;;5156444;27;20070;-61
2023/09/29 16:36:42;;;;;;;9.25;6.68;;;;;;;;;;5156267;27;20380;-61
2023/09/29 16:39:12;;;;;;;14.45;8.43;;;;;;;;;;5155442;27;20039;-61
2023/09/29 16:41:37;;;;;;;9.63;6.80;;;;;;;;;;5156249;27;20472;-61
2023/09/29 16:44:08;;;;;;;8.13;7.28;;;;;;;;;;5137674;27;20102;-61
2023/09/29 16:46:33;;;;;;;9.57;6.82;;;;;;;;;;5137739;27;20473;-61
2023/09/29 16:48:59;;;;;;;9.93;6.82;;;;;;;;;;5156045;27;20042;-61
2023/09/29 16:51:26;;;;;;;8.70;7.18;;;;;;;;;;5156174;27;20185;-61
2023/09/29 16:53:51;;;;;;;22.33;13.38;;;;;;;;;;5156187;27;20022;-61
2023/09/29 16:56:16;;;;;;;18.17;12.65;;;;;;;;;;5155981;27;20041;-61
2023/09/29 16:58:42;;;;;;;18.23;10.30;;;;;;;;;;5155825;27;20472;-61
2023/09/29 17:01:10;;;;;;;13.00;9.32;;;;;;;;;;5155715;27;20497;-61
2023/09/29 17:03:36;;;;;;;18.30;10.10;;;;;;;;;;5137463;27;20434;-61
2023/09/29 17:06:02;;;;;;;15.73;9.93;;;;;;;;;;5155776;27;20041;-61
2023/09/29 17:08:27;;;;;;;14.07;9.18;;;;;;;;;;5155741;27;20034;-61
2023/09/29 17:10:53;;;;;;;17.65;10.55;;;;;;;;;;5136901;27;20046;-61
2023/09/29 17:13:18;;;;;;;15.18;9.73;;;;;;;;;;5155669;27;20480;-61
2023/09/29 17:15:45;;;;;;;12.93;10.07;;;;;;;;;;5141976;27;20064;-61
2023/09/29 17:18:10;;;;;;;72.47;31.30;;;;;;;;;;5155077;27;20045;-61
2023/09/29 17:20:36;;;;;;;33.50;19.50;;;;;;;;;;5154853;27;20046;-61
2023/09/29 17:23:01;;;;;;;12.75;9.55;;;;;;;;;;5155898;27;20034;-61
2023/09/29 17:25:27;;;;;;;10.15;7.43;;;;;;;;;;5132354;27;20030;-61
2023/09/29 17:27:52;;;;;;;17.58;9.73;;;;;;;;;;5155575;27;20065;-61
2023/09/29 17:30:18;;;;;;;49.55;21.40;;;;;;;;;;5136919;27;20042;-61
2023/09/29 17:32:43;;;;;;;23.70;14.18;;;;;;;;;;5156191;27;20041;-68
2023/09/29 17:35:10;;;;;;;41.67;17.30;;;;;;;;;;5137326;27;20034;-68
2023/09/29 17:37:35;;;;;;;13.73;8.90;;;;;;;;;;5155304;27;20046;-69
2023/09/29 17:40:00;;;;;;;12.00;8.60;;;;;;;;;;5154882;27;20045;-61
2023/09/29 17:42:26;;;;;;;12.88;8.05;;;;;;;;;;5155783;27;20119;-61
2023/09/29 17:44:51;;;;;;;13.45;8.40;;;;;;;;;;5155776;27;20027;-61
2023/09/29 17:47:17;;;;;;;16.33;9.02;;;;;;;;;;5130705;28;20418;-61
2023/09/29 17:49:42;;;;;;;25.30;11.38;;;;;;;;;;5132224;27;20032;-62
2023/09/29 17:52:07;;;;;;;26.20;12.60;;;;;;;;;;5142635;27;20577;-61
2023/09/29 17:54:33;;;;;;;54.38;23.13;;;;;;;;;;5147566;27;20062;-61
2023/09/29 17:56:58;;;;;;;66.88;28.00;;;;;;;;;;5138035;27;20039;-62
2023/09/29 17:59:25;;;;;;;67.35;28.80;;;;;;;;;;5125768;27;20395;-61
2023/09/29 18:01:51;;;;;;;31.35;15.50;;;;;;;;;;5158596;27;20475;-69
2023/09/29 18:04:17;;;;;;;29.08;14.95;;;;;;;;;;5156879;27;20035;-69
2023/09/29 18:06:43;;;;;;;27.98;15.75;;;;;;;;;;5154844;27;20015;-69
2023/09/29 18:09:09;;;;;;;22.27;12.82;;;;;;;;;;5146052;27;20046;-69
2023/09/29 18:11:34;;;;;;;11.35;8.45;;;;;;;;;;5118573;27;20485;-70
2023/09/29 18:14:00;;;;;;;11.60;9.05;;;;;;;;;;5137735;27;20039;-70
2023/09/29 18:16:26;;;;;;;16.00;10.15;;;;;;;;;;5137487;27;20068;-69
2023/09/29 18:18:51;;;;;;;13.90;10.63;;;;;;;;;;5119496;27;20046;-69
2023/09/29 18:21:17;;;;;;;15.00;10.55;;;;;;;;;;5137151;27;20100;-69
2023/09/29 18:23:42;;;;;;;19.60;11.60;;;;;;;;;;5136543;27;20544;-69
2023/09/29 18:26:09;;;;;;;20.42;13.48;;;;;;;;;;5137404;27;20033;-69
2023/09/29 18:28:34;;;;;;;19.35;12.02;;;;;;;;;;5118997;27;20122;-69
2023/09/29 18:31:00;;;;;;;17.73;11.00;;;;;;;;;;5137429;27;20425;-69
2023/09/29 18:33:27;;;;;;;20.88;13.82;;;;;;;;;;5137006;27;20657;-69
2023/09/29 18:35:53;;;;;;;18.88;11.40;;;;;;;;;;5136948;27;20040;-69
2023/09/29 18:38:18;;;;;;;20.02;12.30;;;;;;;;;;5118269;27;20054;-69
2023/09/29 18:40:44;;;;;;;17.30;12.05;;;;;;;;;;5136892;27;20023;-69
2023/09/29 18:43:10;;;;;;;23.13;14.40;;;;;;;;;;5136755;27;20035;-69
2023/09/29 18:45:36;;;;;;;22.50;15.35;;;;;;;;;;5144966;27;20037;-69
2023/09/29 18:48:02;;;;;;;25.88;14.77;;;;;;;;;;5119147;27;20031;-69
2023/09/29 18:50:27;;;;;;;22.17;13.32;;;;;;;;;;5139491;27;20039;-69
2023/09/29 18:52:53;;;;;;;20.15;12.85;;;;;;;;;;5118521;27;20084;-69
2023/09/29 18:55:19;;;;;;;20.55;12.40;;;;;;;;;;5135426;27;20065;-69
2023/09/29 18:57:46;;;;;;;18.80;12.85;;;;;;;;;;5136731;27;20076;-70
2023/09/29 19:00:11;;;;;;;20.33;13.45;;;;;;;;;;5136956;27;20043;-69
2023/09/29 19:02:37;;;;;;;17.10;11.88;;;;;;;;;;5136030;27;20046;-61
2023/09/29 19:05:03;;;;;;;16.20;11.43;;;;;;;;;;5136489;27;20389;-61
2023/09/29 19:07:29;;;;;;;21.83;12.38;;;;;;;;;;5117548;27;20023;-61
2023/09/29 19:09:55;;;;;;;14.73;10.27;;;;;;;;;;5136108;27;20072;-61
2023/09/29 19:12:21;;;;;;;16.45;12.68;;;;;;;;;;5136588;27;20370;-61
2023/09/29 19:14:46;;;;;;;18.65;11.60;;;;;;;;;;5136208;27;20407;-61
2023/09/29 19:17:12;;;;;;;17.92;11.90;;;;;;;;;;5136086;27;20035;-62
2023/09/29 19:19:37;;;;;;;18.73;11.77;;;;;;;;;;5136263;27;20045;-61
2023/09/29 19:22:02;;;;;;;18.95;13.15;;;;;;;;;;5136365;27;20638;-61
2023/09/29 19:24:28;;;;;;;26.38;15.43;;;;;;;;;;5135981;27;20031;-61
2023/09/29 19:26:53;;;;;;;21.35;13.85;;;;;;;;;;5118320;27;20037;-61
2023/09/29 19:29:19;;;;;;;17.25;11.50;;;;;;;;;;5051512;28;20022;-61
2023/09/29 19:31:44;;;;;;;17.88;11.52;;;;;;;;;;5051597;28;20048;-61
2023/09/29 19:34:10;;;;;;;18.00;11.93;;;;;;;;;;5052084;28;20036;-61
2023/09/29 19:36:35;;;;;;;16.88;12.77;;;;;;;;;;5051771;27;20471;-61
2023/09/29 19:39:02;;;;;;;20.27;13.82;;;;;;;;;;5051455;28;20049;-61
2023/09/29 19:41:28;;;;;;;20.35;13.57;;;;;;;;;;5120602;27;20049;-61
2023/09/29 19:43:53;;;;;;;18.58;12.73;;;;;;;;;;5051370;28;20036;-61
2023/09/29 19:46:21;;;;;;;18.50;11.98;;;;;;;;;;5120975;27;20465;-61
2023/09/29 19:48:49;;;;;;;17.23;11.23;;;;;;;;;;5051166;28;20045;-61
2023/09/29 19:51:14;;;;;;;16.02;10.52;;;;;;;;;;5051181;28;20112;-61
2023/09/29 19:53:39;;;;;;;13.98;10.52;;;;;;;;;;5120341;27;20056;-61
2023/09/29 19:56:09;;;;;;;17.10;10.10;;;;;;;;;;5051609;28;20041;-61
2023/09/29 19:58:43;;;;;;;13.98;9.43;;;;;;;;;;5051026;28;20045;-61
2023/09/29 20:01:10;;;;;;;11.82;8.93;;;;;;;;;;5051017;28;20036;-61
2023/09/29 20:03:35;;;;;;;14.27;9.85;;;;;;;;;;5067948;27;20041;-61
2023/09/29 20:06:01;;;;;;;13.13;10.23;;;;;;;;;;5070549;28;20046;-61
2023/09/29 20:08:27;;;;;;;15.43;10.63;;;;;;;;;;5070702;28;20051;-62
2023/09/29 20:10:53;;;;;;;20.02;10.90;;;;;;;;;;5117161;27;20095;-61
2023/09/29 20:13:18;;;;;;;14.50;9.52;;;;;;;;;;5176437;27;20038;-71
2023/09/29 20:15:44;;;;;;;15.70;10.98;;;;;;;;;;5176502;27;20038;-59
2023/09/29 20:18:09;;;;;;;14.98;11.02;;;;;;;;;;5176866;27;20046;-66
2023/09/29 20:20:35;;;;;;;17.30;11.95;;;;;;;;;;5176665;27;20638;-64
2023/09/29 20:23:02;;;;;;;16.83;11.32;;;;;;;;;;5176820;27;20034;-70
2023/09/29 20:25:31;;;;;;;12.63;10.48;;;;;;;;;;5165503;27;20163;-70
2023/09/29 20:27:56;;;;;;;11.18;8.48;;;;;;;;;;5155618;27;20034;-61
2023/09/29 20:30:21;;;;;;;12.45;9.00;;;;;;;;;;5156647;27;20038;-61
2023/09/29 20:32:47;;;;;;;12.23;9.20;;;;;;;;;;5156477;27;20039;-61
2023/09/29 20:35:12;;;;;;;12.00;9.10;;;;;;;;;;5155046;27;20043;-61
2023/09/29 20:37:38;;;;;;;12.63;9.80;;;;;;;;;;5150905;27;20034;-61
2023/09/29 20:40:04;;;;;;;15.20;10.05;;;;;;;;;;5147491;27;20026;-72
2023/09/29 20:42:30;;;;;;;15.00;10.40;;;;;;;;;;5170067;27;20479;-59
2023/09/29 20:44:56;;;;;;;12.80;9.82;;;;;;;;;;5177228;27;20086;-59
2023/09/29 20:47:21;;;;;;;13.48;9.13;;;;;;;;;;5177524;27;20034;-59
2023/09/29 20:49:47;;;;;;;13.45;8.90;;;;;;;;;;5177430;27;20352;-61
2023/09/29 20:52:13;;;;;;;11.13;9.57;;;;;;;;;;5176735;27;20026;-77
2023/09/29 20:54:40;;;;;;;12.65;9.18;;;;;;;;;;5176867;27;20132;-71
2023/09/29 20:57:07;;;;;;;11.40;9.02;;;;;;;;;;5177115;27;20042;-71
2023/09/29 20:59:32;;;;;;;12.13;8.77;;;;;;;;;;5176797;27;20038;-70
2023/09/29 21:01:58;;;;;;;13.07;9.48;;;;;;;;;;5177152;27;20034;-61
2023/09/29 21:04:25;;;;;;;13.35;8.38;;;;;;;;;;5158539;27;20178;-62
2023/09/29 21:06:51;;;;;;;12.43;9.38;;;;;;;;;;5176941;27;20108;-61
2023/09/29 21:09:16;;;;;;;11.38;9.75;;;;;;;;;;5176988;27;20038;-61
2023/09/29 21:11:42;;;;;;;12.93;8.93;;;;;;;;;;5176490;27;20122;-70
2023/09/29 21:14:07;;;;;;;11.20;8.85;;;;;;;;;;5176858;27;20163;-70
2023/09/29 21:16:33;;;;;;;10.13;8.20;;;;;;;;;;5176934;27;20452;-70
2023/09/29 21:18:58;;;;;;;11.68;8.65;;;;;;;;;;5176506;27;20110;-61
2023/09/29 21:21:25;;;;;;;14.93;9.07;;;;;;;;;;5176908;27;20030;-61
2023/09/29 21:23:50;;;;;;;13.90;9.88;;;;;;;;;;5177199;27;20120;-70
2023/09/29 21:26:16;;;;;;;10.15;8.45;;;;;;;;;;5157505;27;20118;-70
2023/09/29 21:28:41;;;;;;;11.98;9.48;;;;;;;;;;5158032;27;20030;-70
2023/09/29 21:31:11;;;;;;;12.70;8.52;;;;;;;;;;5176529;27;20037;-61
2023/09/29 21:33:36;;;;;;;10.15;8.02;;;;;;;;;;5176814;27;20038;-59
2023/09/29 21:36:02;;;;;;;12.15;8.52;;;;;;;;;;5176750;27;20098;-59
2023/09/29 21:38:28;;;;;;;12.98;8.77;;;;;;;;;;5176169;27;20482;-69
2023/09/29 21:40:53;;;;;;;14.73;8.15;;;;;;;;;;5176621;27;20109;-69
2023/09/29 21:43:18;;;;;;;11.15;8.93;;;;;;;;;;5176640;27;20429;-69
2023/09/29 21:45:44;;;;;;;12.30;9.13;;;;;;;;;;5176519;27;20460;-69
2023/09/29 21:48:09;;;;;;;15.38;9.57;;;;;;;;;;5176424;27;20030;-69
2023/09/29 21:50:35;;;;;;;12.63;8.90;;;;;;;;;;5176619;27;20034;-69
2023/09/29 21:53:00;;;;;;;14.85;9.80;;;;;;;;;;5176661;27;20068;-69
2023/09/29 21:55:30;;;;;;;12.85;9.70;;;;;;;;;;5158126;27;20109;-67